Jeffris, Wisconsin
Current Conditions -  °F | °C
As of 3:35 AM on Saturday 25 Oct 2014 (Local Time) from KRRL Reporting Station
Haze Haze  
Wind Chill: 52°   Ceiling: Unl
Heat Index: 52°   Visibility: 5mi
Dew Point: 51°   Wind: 9mph
Humidity: 97%   Direction: 270°W
Pressure: 29.83"   Gusts: NA
Location:  45.3595°N, 89.45°W
Report Text: KRRL 250835Z AUTO 27008KT 5SM BR CLR 11/11 A2983 RMK AO2 T01100105
Loading
Personal Weather Stations






























Interactive Weather Map New forecast layout! Learn more

10-Day Weather Forecast

Advertisements
Track Severe Weather on mobile